Weather at Campo di Volo Ali Friuli

Public forecast

Using degrees Celsius for public forecast. Weather courtesy of forecast.io.

Closest aviation weather report (METAR) to Campo di Volo Ali Friuli

Closest report is Trieste–Friuli Venezia Giulia Airport, 13.9 nm (25.7 km) S. Retrieved 2020/09/27 15:20 UTC (37 minutes ago):

LIPQ 271520Z AUTO 10008KT 9999 BKN110 17/06 Q1006

Closest aviation forecast (TAF) to Campo di Volo Ali Friuli

Closest forecast is Trieste–Friuli Venezia Giulia Airport, 13.9 nm (25.7 km) S. Retrieved 2020/09/27 12:21 UTC (4 hours ago):

TAF LIPQ 271100Z 2712/2812 07012KT 9999 SCT040 BECMG 2714/2716 4000 RA TEMPO 2718/2724 35015G25KT BECMG 2804/2806 VRB05KT 9999 NSW